Time;durP1;ratioP1;P1;durP2;ratioP2;P2;SDS_P1;SDS_P2;PMS_P1;PMS_P2;Temp;Humidity;BMP_temperature;BMP_pressure;BME280_temperature;BME280_humidity;BME280_pressure;Samples;Min_cycle;Max_cycle;Signal;HPM_P1;HPM_P2
2022/01/06 00:00:28;;;;;;;58.78;48.00;;;15.80;62.40;;;;;;4976423;27;93266;-67
2022/01/06 00:02:55;;;;;;;58.67;47.75;;;15.80;63.00;;;;;;4990414;27;91031;-67
2022/01/06 00:05:21;;;;;;;60.97;48.40;;;15.80;62.30;;;;;;4991987;27;90850;-67
2022/01/06 00:07:47;;;;;;;61.72;47.90;;;15.80;62.20;;;;;;4992297;27;91236;-67
2022/01/06 00:10:14;;;;;;;59.13;47.85;;;15.80;62.30;;;;;;4990371;27;91508;-67
2022/01/06 00:13:02;;;;;;;60.22;48.00;;;15.80;62.10;;;;;;4992965;27;90372;-67
2022/01/06 00:15:38;;;;;;;58.60;47.83;;;15.80;62.20;;;;;;4995696;27;89010;-67
2022/01/06 00:18:11;;;;;;;60.75;47.85;;;15.70;61.90;;;;;;4970661;27;91591;-67
2022/01/06 00:23:32;;;;;;;60.42;47.80;;;15.60;62.50;;;;;;4984586;27;93357;-67
2022/01/06 00:25:59;;;;;;;60.30;48.08;;;15.60;62.80;;;;;;4992056;27;90796;-67
2022/01/06 00:28:25;;;;;;;60.20;48.08;;;15.50;62.40;;;;;;4986706;27;91226;-67
2022/01/06 00:30:51;;;;;;;59.58;47.92;;;15.50;62.50;;;;;;4980082;27;95811;-67
2022/01/06 00:33:17;;;;;;;58.05;47.50;;;15.50;62.70;;;;;;4985416;27;90622;-67
2022/01/06 00:35:43;;;;;;;58.58;47.85;;;15.40;62.80;;;;;;5003837;27;91433;-68
2022/01/06 00:38:09;;;;;;;60.75;47.53;;;15.40;62.80;;;;;;4995179;27;93316;-67
2022/01/06 00:40:35;;;;;;;58.50;47.28;;;15.40;63.00;;;;;;5013338;27;90107;-67
2022/01/06 00:43:03;;;;;;;58.88;47.55;;;15.30;62.60;;;;;;5003645;27;91490;-67
2022/01/06 00:45:29;;;;;;;58.80;47.60;;;15.30;63.10;;;;;;5005896;27;90265;-67
2022/01/06 00:47:55;;;;;;;60.03;47.70;;;15.20;63.10;;;;;;5004019;27;92221;-66
2022/01/06 00:50:21;;;;;;;60.40;47.65;;;15.20;63.00;;;;;;5003520;27;91494;-67
2022/01/06 00:52:46;;;;;;;60.08;47.83;;;15.20;63.10;;;;;;5001570;27;90218;-68
2022/01/06 00:55:12;;;;;;;59.58;47.58;;;15.10;63.20;;;;;;5011014;27;89906;-67
2022/01/06 00:57:38;;;;;;;60.83;47.75;;;15.20;63.40;;;;;;5003727;27;89881;-67
2022/01/06 01:00:06;;;;;;;59.78;47.72;;;15.10;63.60;;;;;;5006632;27;90859;-67
2022/01/06 01:02:32;;;;;;;58.53;47.60;;;15.10;63.40;;;;;;4995549;27;90166;-67
2022/01/06 01:04:58;;;;;;;59.25;47.65;;;15.10;63.40;;;;;;5017567;27;89053;-67
2022/01/06 01:07:23;;;;;;;60.30;47.55;;;15.10;63.70;;;;;;5013515;27;90694;-67
2022/01/06 01:09:49;;;;;;;57.83;47.75;;;15.10;63.70;;;;;;5015119;27;89861;-67
2022/01/06 01:12:15;;;;;;;60.60;47.80;;;15.10;63.50;;;;;;4993405;27;92104;-67
2022/01/06 01:14:58;;;;;;;59.22;47.80;;;15.20;63.40;;;;;;5014699;27;90437;-67
2022/01/06 01:17:26;;;;;;;60.20;47.83;;;15.20;63.20;;;;;;4988526;27;92691;-67
2022/01/06 01:19:53;;;;;;;61.10;47.75;;;15.20;63.50;;;;;;4981146;27;91450;-67
2022/01/06 01:22:18;;;;;;;57.97;47.45;;;15.20;63.30;;;;;;5000342;27;91509;-67
2022/01/06 01:24:44;;;;;;;60.08;47.70;;;15.20;63.30;;;;;;5010947;27;89539;-67
2022/01/06 01:27:10;;;;;;;58.92;47.75;;;15.20;63.30;;;;;;5005403;27;91548;-67
2022/01/06 01:29:44;;;;;;;58.47;47.67;;;15.20;63.30;;;;;;5017616;27;89825;-67
2022/01/06 01:32:10;;;;;;;58.17;47.53;;;15.20;63.40;;;;;;5015812;27;90297;-66
2022/01/06 01:34:57;;;;;;;59.90;47.40;;;15.20;62.90;;;;;;2074588;27;10108311;-66
2022/01/06 01:37:22;;;;;;;58.10;47.67;;;15.20;63.20;;;;;;3623169;27;10093907;-67
2022/01/06 01:39:48;;;;;;;59.45;47.53;;;15.20;63.10;;;;;;5006883;27;89911;-67
2022/01/06 01:42:14;;;;;;;58.83;47.65;;;15.20;63.40;;;;;;5009115;27;89902;-67
2022/01/06 01:44:39;;;;;;;60.50;47.95;;;15.20;63.00;;;;;;5020200;27;91714;-67
2022/01/06 01:47:13;;;;;;;58.97;47.58;;;15.20;62.90;;;;;;5016885;27;89790;-67
2022/01/06 01:49:51;;;;;;;57.88;47.33;;;15.20;63.20;;;;;;5019765;27;90057;-66
2022/01/06 01:52:17;;;;;;;59.10;47.70;;;15.30;63.30;;;;;;4999906;27;91790;-67
2022/01/06 01:54:42;;;;;;;59.45;47.72;;;15.30;62.90;;;;;;5020129;27;89045;-67
2022/01/06 01:57:08;;;;;;;58.20;47.58;;;15.40;62.80;;;;;;5008005;27;90586;-67
2022/01/06 01:59:34;;;;;;;58.42;47.63;;;15.40;62.70;;;;;;5011235;27;90221;-67
2022/01/06 02:01:59;;;;;;;59.17;47.63;;;15.50;62.40;;;;;;5016117;27;91309;-68
2022/01/06 02:04:25;;;;;;;58.08;46.95;;;15.50;62.10;;;;;;5021275;27;89905;-67
2022/01/06 02:06:50;;;;;;;59.40;47.72;;;15.60;62.00;;;;;;4993508;27;92490;-67
2022/01/06 02:09:17;;;;;;;58.95;47.72;;;15.70;61.80;;;;;;5018274;27;96100;-67
2022/01/06 02:11:43;;;;;;;58.75;47.55;;;15.70;61.70;;;;;;4994694;27;90361;-67
2022/01/06 02:14:08;;;;;;;60.83;47.65;;;15.70;61.60;;;;;;5017332;27;92203;-67
2022/01/06 02:16:34;;;;;;;59.63;47.72;;;15.80;61.30;;;;;;5017672;27;90393;-67
2022/01/06 02:19:00;;;;;;;58.08;47.45;;;15.80;61.10;;;;;;4996325;27;88970;-67
2022/01/06 02:21:25;;;;;;;59.33;47.60;;;15.80;61.20;;;;;;5013686;27;89910;-67
2022/01/06 02:23:51;;;;;;;59.20;47.50;;;15.80;61.20;;;;;;5015052;27;90074;-67
2022/01/06 02:26:17;;;;;;;59.75;47.60;;;15.80;60.70;;;;;;5015338;27;91781;-67
2022/01/06 02:28:43;;;;;;;57.88;47.42;;;15.80;61.00;;;;;;4983962;28;89737;-66
2022/01/06 02:31:09;;;;;;;59.50;47.65;;;15.80;61.00;;;;;;5009475;27;90248;-66
2022/01/06 02:33:36;;;;;;;60.38;47.90;;;15.80;60.90;;;;;;5017067;28;96705;-66
2022/01/06 02:36:02;;;;;;;59.63;47.75;;;15.80;60.70;;;;;;5007940;27;90224;-65
2022/01/06 02:38:28;;;;;;;59.40;47.90;;;15.80;60.80;;;;;;5007984;27;89908;-66
2022/01/06 02:40:54;;;;;;;59.22;47.22;;;15.80;60.70;;;;;;5014842;27;89742;-65
2022/01/06 02:43:23;;;;;;;59.70;47.72;;;15.80;60.70;;;;;;4993991;28;92630;-66
2022/01/06 02:45:49;;;;;;;61.10;47.75;;;15.80;60.70;;;;;;5010780;27;89988;-65
2022/01/06 02:48:15;;;;;;;59.50;47.78;;;15.80;60.90;;;;;;5012678;27;89879;-66
2022/01/06 02:50:46;;;;;;;58.33;47.35;;;15.70;60.80;;;;;;5003653;27;91853;-66
2022/01/06 02:53:13;;;;;;;57.92;47.47;;;15.70;60.60;;;;;;5015885;27;90271;-66
2022/01/06 02:55:42;;;;;;;57.33;47.28;;;15.70;60.70;;;;;;4999775;27;90343;-66
2022/01/06 02:58:07;;;;;;;59.45;47.45;;;15.70;61.00;;;;;;5011709;27;90082;-66
2022/01/06 03:00:35;;;;;;;58.03;47.35;;;15.70;60.70;;;;;;5019387;27;96583;-66
2022/01/06 03:03:01;;;;;;;60.40;47.45;;;15.70;60.70;;;;;;5009205;27;90477;-65
2022/01/06 03:05:27;;;;;;;58.83;47.72;;;15.70;60.80;;;;;;5013394;27;91308;-65
2022/01/06 03:07:52;;;;;;;60.42;47.53;;;15.70;60.60;;;;;;5016229;27;89348;-65
2022/01/06 03:10:18;;;;;;;58.85;47.45;;;15.70;60.50;;;;;;4987882;28;90184;-66
2022/01/06 03:12:46;;;;;;;58.42;47.35;;;15.60;60.70;;;;;;5005058;27;90308;-66
2022/01/06 03:15:22;;;;;;;58.75;47.35;;;15.60;60.80;;;;;;5011052;27;92707;-66
2022/01/06 03:17:51;;;;;;;59.20;47.45;;;15.60;60.60;;;;;;5017255;27;90013;-66
2022/01/06 03:20:18;;;;;;;59.63;47.35;;;15.50;60.80;;;;;;5003472;28;89453;-66
2022/01/06 03:22:44;;;;;;;58.42;47.35;;;15.60;61.00;;;;;;5009548;27;89937;-66
2022/01/06 03:25:12;;;;;;;58.97;47.38;;;15.50;61.20;;;;;;5009756;27;89598;-66
2022/01/06 03:27:41;;;;;;;58.65;47.05;;;15.50;61.00;;;;;;5000436;27;91994;-66
2022/01/06 03:30:09;;;;;;;59.60;47.70;;;15.60;61.10;;;;;;5009196;27;96502;-66
2022/01/06 03:32:35;;;;;;;59.80;47.58;;;15.50;61.00;;;;;;5003897;27;89432;-65
2022/01/06 03:35:00;;;;;;;59.85;47.58;;;15.50;61.00;;;;;;5003889;27;92008;-66
2022/01/06 03:37:27;;;;;;;60.30;47.55;;;15.50;61.00;;;;;;4996280;27;91181;-66
2022/01/06 03:39:52;;;;;;;59.78;47.80;;;15.50;60.90;;;;;;5012908;27;91257;-65
2022/01/06 03:42:18;;;;;;;59.33;47.35;;;15.50;60.90;;;;;;4987630;28;91021;-66
2022/01/06 03:44:44;;;;;;;59.13;47.33;;;15.50;60.90;;;;;;5008241;27;90810;-66
2022/01/06 03:47:09;;;;;;;59.25;47.80;;;15.40;60.80;;;;;;5006559;27;90792;-66
2022/01/06 03:49:35;;;;;;;60.22;47.50;;;15.50;61.20;;;;;;5006145;27;90018;-66
2022/01/06 03:52:01;;;;;;;60.00;47.65;;;15.50;61.10;;;;;;5009345;27;92791;-66
2022/01/06 03:54:27;;;;;;;58.92;47.35;;;15.40;61.10;;;;;;5012031;27;90654;-66
2022/01/06 03:56:52;;;;;;;59.88;47.65;;;15.40;61.30;;;;;;5012338;27;88830;-66
2022/01/06 03:59:19;;;;;;;58.63;47.35;;;15.40;61.40;;;;;;5019437;27;93948;-66
2022/01/06 04:01:45;;;;;;;59.08;47.55;;;15.40;61.10;;;;;;5012222;27;91574;-66
2022/01/06 04:04:13;;;;;;;58.97;47.45;;;15.30;61.00;;;;;;5013970;27;91433;-66
2022/01/06 04:06:39;;;;;;;59.25;47.58;;;15.30;61.60;;;;;;4996562;27;89571;-66
2022/01/06 04:09:05;;;;;;;59.85;47.50;;;15.40;61.10;;;;;;5008856;27;89487;-65
2022/01/06 04:11:31;;;;;;;58.40;47.33;;;15.30;61.10;;;;;;5011070;27;90484;-66
2022/01/06 04:13:57;;;;;;;58.65;47.08;;;15.30;61.20;;;;;;5015395;27;90362;-66
2022/01/06 04:16:25;;;;;;;60.00;47.53;;;15.30;61.50;;;;;;5018103;27;89528;-66
2022/01/06 04:18:51;;;;;;;59.17;47.55;;;15.30;61.70;;;;;;5013339;27;90179;-66
2022/01/06 04:21:16;;;;;;;59.13;47.60;;;15.30;61.20;;;;;;5008009;27;89959;-66
2022/01/06 04:23:42;;;;;;;58.83;47.60;;;15.20;61.30;;;;;;5012274;27;89669;-66
2022/01/06 04:26:08;;;;;;;57.78;47.58;;;15.20;61.30;;;;;;4994378;27;89568;-66
2022/01/06 04:28:33;;;;;;;59.60;47.40;;;15.20;61.60;;;;;;5011334;27;91355;-65
2022/01/06 04:30:59;;;;;;;60.00;47.83;;;15.20;61.30;;;;;;5012047;27;91937;-66
2022/01/06 04:33:25;;;;;;;58.17;47.22;;;15.20;61.60;;;;;;5013604;27;90206;-66
2022/01/06 04:35:50;;;;;;;58.13;47.70;;;15.20;61.50;;;;;;5013797;27;89651;-66
2022/01/06 04:38:16;;;;;;;59.70;47.75;;;15.20;61.50;;;;;;5017773;27;89692;-66
2022/01/06 04:40:42;;;;;;;59.45;47.58;;;15.10;61.40;;;;;;5002531;27;90070;-66
2022/01/06 04:43:07;;;;;;;60.28;47.67;;;15.10;61.30;;;;;;5004839;27;90104;-66
2022/01/06 04:45:34;;;;;;;58.85;47.30;;;15.10;61.40;;;;;;5013706;27;90243;-66
2022/01/06 04:47:59;;;;;;;59.38;47.80;;;15.10;62.30;;;;;;5013549;27;89628;-66
2022/01/06 04:50:25;;;;;;;60.17;47.65;;;15.10;61.70;;;;;;5005735;27;91209;-65
2022/01/06 04:52:51;;;;;;;60.25;47.42;;;15.20;61.60;;;;;;5013455;27;92440;-66
2022/01/06 04:55:17;;;;;;;59.35;47.95;;;15.10;61.40;;;;;;5009173;27;93278;-66
2022/01/06 04:57:42;;;;;;;57.55;47.67;;;15.00;61.40;;;;;;5007022;27;90890;-66
2022/01/06 05:00:08;;;;;;;58.50;47.85;;;15.00;61.40;;;;;;5004015;27;89609;-66
2022/01/06 05:02:34;;;;;;;58.92;47.75;;;15.00;61.50;;;;;;5013404;27;89956;-66
2022/01/06 05:04:59;;;;;;;58.92;47.85;;;15.10;61.50;;;;;;5014900;27;90609;-66
2022/01/06 05:07:25;;;;;;;60.40;47.85;;;15.10;61.70;;;;;;5011422;27;90519;-66
2022/01/06 05:09:51;;;;;;;58.53;47.55;;;15.20;62.20;;;;;;5015009;27;89026;-66
2022/01/06 05:12:17;;;;;;;59.40;47.88;;;15.20;62.60;;;;;;5006891;27;90920;-66
2022/01/06 05:14:42;;;;;;;61.47;47.95;;;15.30;62.30;;;;;;5018975;27;89808;-66
2022/01/06 05:17:09;;;;;;;59.00;48.03;;;15.40;62.70;;;;;;4987541;27;90406;-66
2022/01/06 05:19:35;;;;;;;61.03;48.00;;;15.50;62.40;;;;;;5005240;27;90933;-66
2022/01/06 05:22:02;;;;;;;58.53;48.03;;;15.70;62.10;;;;;;5011336;27;90966;-66
2022/01/06 05:24:28;;;;;;;59.65;47.92;;;15.90;61.60;;;;;;5011810;27;90204;-66
2022/01/06 05:26:55;;;;;;;59.10;47.75;;;16.00;61.00;;;;;;4997874;27;94962;-66
2022/01/06 05:29:21;;;;;;;59.55;47.83;;;16.10;60.90;;;;;;5003828;27;95547;-66
2022/01/06 05:31:47;;;;;;;59.47;47.88;;;16.20;60.40;;;;;;5009336;27;92959;-66
2022/01/06 05:34:12;;;;;;;60.40;48.03;;;16.20;60.30;;;;;;5000563;27;89454;-66
2022/01/06 05:36:39;;;;;;;60.65;47.95;;;16.30;59.80;;;;;;4998665;27;91994;-66
2022/01/06 05:39:05;;;;;;;59.75;48.05;;;16.30;59.80;;;;;;5005687;27;91015;-66
2022/01/06 05:41:31;;;;;;;59.67;47.85;;;16.30;59.50;;;;;;5000158;27;97204;-66
2022/01/06 05:43:57;;;;;;;59.47;47.58;;;16.40;59.20;;;;;;4997749;27;93961;-66
2022/01/06 05:46:23;;;;;;;59.28;47.70;;;16.50;59.10;;;;;;5016616;27;94003;-66
2022/01/06 05:48:48;;;;;;;58.45;47.97;;;16.60;58.70;;;;;;5004563;27;97080;-66
2022/01/06 05:51:14;;;;;;;59.80;47.97;;;16.60;58.30;;;;;;5006507;27;90714;-66
2022/01/06 05:53:40;;;;;;;58.80;47.58;;;16.60;58.30;;;;;;4982437;27;90747;-67
2022/01/06 05:56:06;;;;;;;58.60;47.95;;;16.60;58.60;;;;;;5001322;27;91733;-66
2022/01/06 05:58:32;;;;;;;59.03;47.88;;;16.60;58.60;;;;;;5007012;27;89641;-66
2022/01/06 06:00:57;;;;;;;59.33;47.85;;;16.60;58.60;;;;;;4997201;27;90827;-66
2022/01/06 06:03:27;;;;;;;58.75;47.58;;;16.60;58.20;;;;;;5015717;27;91710;-66
2022/01/06 06:05:53;;;;;;;58.78;47.85;;;16.70;58.30;;;;;;4999661;27;90622;-66
2022/01/06 06:08:19;;;;;;;58.78;47.85;;;16.70;58.30;;;;;;5015219;27;90492;-66
2022/01/06 06:10:44;;;;;;;59.88;47.70;;;16.70;57.80;;;;;;4995101;27;94475;-66
2022/01/06 06:13:10;;;;;;;58.05;47.65;;;16.70;57.90;;;;;;5005044;27;90082;-66
2022/01/06 06:15:36;;;;;;;59.17;47.70;;;16.70;57.90;;;;;;5006237;27;92456;-66
2022/01/06 06:18:03;;;;;;;58.78;47.65;;;16.70;57.90;;;;;;5004797;27;90322;-65
2022/01/06 06:20:29;;;;;;;58.63;47.88;;;16.60;58.00;;;;;;5008232;27;91417;-66
2022/01/06 06:22:54;;;;;;;58.28;47.65;;;16.60;57.60;;;;;;5002812;27;89499;-66
2022/01/06 06:25:20;;;;;;;58.58;47.47;;;16.50;58.00;;;;;;5011111;27;90536;-66
2022/01/06 06:27:45;;;;;;;58.53;47.55;;;16.50;57.90;;;;;;5000943;27;90128;-66
2022/01/06 06:30:11;;;;;;;59.60;48.13;;;16.50;57.70;;;;;;4996838;27;91504;-66
2022/01/06 06:32:37;;;;;;;58.22;47.75;;;16.40;57.80;;;;;;5001682;27;91393;-66
2022/01/06 06:35:04;;;;;;;58.92;47.55;;;16.40;58.60;;;;;;5003557;27;92248;-65
2022/01/06 06:37:30;;;;;;;58.25;47.55;;;16.40;58.00;;;;;;5002192;27;91918;-65
2022/01/06 06:39:57;;;;;;;62.35;47.80;;;16.30;57.90;;;;;;4978093;27;96023;-66
2022/01/06 06:42:24;;;;;;;59.30;47.67;;;16.30;58.10;;;;;;4994373;27;89603;-66
2022/01/06 06:44:49;;;;;;;59.25;48.03;;;16.20;58.20;;;;;;4999441;27;90131;-65
2022/01/06 06:47:15;;;;;;;59.83;47.42;;;16.30;58.00;;;;;;5002902;27;89426;-66
2022/01/06 06:49:41;;;;;;;58.35;47.47;;;16.20;58.00;;;;;;5001661;27;91508;-66
2022/01/06 06:52:06;;;;;;;58.92;47.45;;;16.20;58.20;;;;;;5007322;27;89866;-66
2022/01/06 06:54:32;;;;;;;59.78;47.80;;;16.20;58.40;;;;;;5006723;27;91844;-66
2022/01/06 06:56:58;;;;;;;58.10;47.35;;;16.10;58.20;;;;;;5011433;27;89936;-66
2022/01/06 06:59:23;;;;;;;60.00;47.58;;;16.10;58.20;;;;;;5000122;27;96550;-66
2022/01/06 07:01:49;;;;;;;61.15;47.80;;;16.10;58.30;;;;;;5005449;27;89458;-66
2022/01/06 07:04:14;;;;;;;61.42;47.58;;;16.10;58.50;;;;;;5013596;27;89252;-66
2022/01/06 07:06:40;;;;;;;60.60;47.97;;;16.00;58.30;;;;;;5002932;27;91035;-66
2022/01/06 07:09:06;;;;;;;63.42;47.65;;;16.00;58.40;;;;;;5002734;27;91148;-66
2022/01/06 07:11:32;;;;;;;58.78;47.35;;;15.90;58.30;;;;;;4982694;27;89049;-66
2022/01/06 07:13:58;;;;;;;62.15;47.75;;;15.90;58.90;;;;;;4977043;27;94933;-66
2022/01/06 07:16:23;;;;;;;60.97;47.28;;;15.90;58.60;;;;;;5007914;27;91384;-64
2022/01/06 07:18:49;;;;;;;64.90;47.35;;;15.80;58.70;;;;;;4996474;27;91212;-65
2022/01/06 07:21:15;;;;;;;64.82;47.75;;;15.80;58.40;;;;;;5001246;27;91194;-64
2022/01/06 07:23:40;;;;;;;64.05;47.55;;;15.80;58.70;;;;;;5002356;27;90259;-64
2022/01/06 07:26:06;;;;;;;68.00;48.00;;;15.80;58.70;;;;;;5001143;27;91431;-64
2022/01/06 07:28:31;;;;;;;58.78;47.33;;;15.80;58.80;;;;;;4999351;27;89571;-65
2022/01/06 07:30:57;;;;;;;61.92;47.50;;;15.80;58.80;;;;;;4993369;27;89398;-67
2022/01/06 07:33:23;;;;;;;59.35;47.55;;;15.90;58.70;;;;;;5008186;27;92503;-67
2022/01/06 07:35:48;;;;;;;64.20;47.95;;;16.00;58.50;;;;;;5006183;27;90815;-66
2022/01/06 07:38:14;;;;;;;58.85;47.13;;;16.00;58.30;;;;;;5004501;27;89911;-67
2022/01/06 07:40:40;;;;;;;60.95;47.45;;;16.00;58.40;;;;;;5000710;27;95543;-66
2022/01/06 07:43:06;;;;;;;64.75;48.50;;;16.10;58.00;;;;;;4991380;27;91501;-67
2022/01/06 07:45:31;;;;;;;71.88;49.38;;;16.10;59.40;;;;;;5008824;27;90589;-66
2022/01/06 07:48:02;;;;;;;69.75;49.17;;;16.10;61.60;;;;;;5008408;27;90718;-67
2022/01/06 07:50:30;;;;;;;65.97;48.03;;;16.10;62.20;;;;;;5014612;27;91308;-66
2022/01/06 07:52:56;;;;;;;65.45;48.40;;;16.10;61.10;;;;;;5016273;27;90985;-66
2022/01/06 07:55:22;;;;;;;66.18;48.70;;;16.10;61.10;;;;;;4999236;27;92323;-68
2022/01/06 07:57:49;;;;;;;65.13;48.85;;;16.10;60.60;;;;;;4996611;27;90017;-68
2022/01/06 08:00:15;;;;;;;74.13;50.40;;;16.20;60.90;;;;;;4990547;27;90721;-66
2022/01/06 08:02:41;;;;;;;65.10;49.03;;;16.50;60.20;;;;;;4984085;28;91207;-69
2022/01/06 08:05:10;;;;;;;78.93;49.95;;;16.70;59.30;;;;;;5000207;27;90412;-70
2022/01/06 08:07:36;;;;;;;72.80;51.42;;;16.90;58.90;;;;;;4997160;27;96241;-65
2022/01/06 08:10:02;;;;;;;74.28;50.42;;;17.00;58.50;;;;;;4989072;27;89345;-66
2022/01/06 08:12:28;;;;;;;70.15;49.35;;;17.00;58.00;;;;;;4994506;27;89984;-66
2022/01/06 08:14:53;;;;;;;73.85;49.97;;;17.00;57.50;;;;;;5003113;27;89978;-68
2022/01/06 08:17:19;;;;;;;66.63;49.70;;;17.00;56.70;;;;;;5000031;27;89837;-68
2022/01/06 08:19:47;;;;;;;76.57;49.95;;;16.90;57.00;;;;;;4999166;27;95422;-64
2022/01/06 08:22:13;;;;;;;71.60;50.28;;;16.90;56.80;;;;;;5004870;27;90891;-66
2022/01/06 08:24:38;;;;;;;75.03;52.70;;;16.90;57.30;;;;;;4998804;27;95582;-67
2022/01/06 08:27:08;;;;;;;77.78;52.90;;;17.00;57.10;;;;;;5003764;27;96342;-66
2022/01/06 08:29:35;;;;;;;75.45;52.65;;;17.00;56.40;;;;;;5008285;27;90900;-69
2022/01/06 08:32:02;;;;;;;68.90;52.45;;;17.00;56.40;;;;;;4998627;27;92067;-67
2022/01/06 08:34:27;;;;;;;75.10;52.30;;;17.00;56.30;;;;;;4994264;27;96894;-66
2022/01/06 08:36:54;;;;;;;70.93;52.15;;;17.00;56.80;;;;;;4998303;27;90336;-65
2022/01/06 08:39:21;;;;;;;76.45;52.72;;;17.10;57.10;;;;;;4991828;27;92088;-69
2022/01/06 08:41:48;;;;;;;78.35;52.13;;;17.10;57.70;;;;;;4992084;27;90874;-68
2022/01/06 08:44:13;;;;;;;74.53;52.40;;;17.30;57.80;;;;;;4977710;27;90108;-69
2022/01/06 08:46:39;;;;;;;73.45;52.30;;;17.40;57.60;;;;;;5004337;27;90306;-69
2022/01/06 08:49:06;;;;;;;70.85;52.78;;;17.50;57.80;;;;;;5003632;27;89936;-66
2022/01/06 08:51:32;;;;;;;69.78;52.10;;;17.60;57.50;;;;;;4993573;27;92009;-67
2022/01/06 08:53:58;;;;;;;71.50;51.97;;;17.60;57.40;;;;;;4999507;27;91703;-66
2022/01/06 08:56:24;;;;;;;76.35;52.30;;;17.70;56.70;;;;;;4988663;27;92632;-67
2022/01/06 08:58:49;;;;;;;76.60;52.95;;;17.80;56.60;;;;;;4977381;27;90010;-68
2022/01/06 09:01:16;;;;;;;82.47;52.92;;;17.80;56.20;;;;;;4998962;27;90379;-67
2022/01/06 09:03:41;;;;;;;82.05;53.08;;;17.80;56.00;;;;;;4998348;27;90628;-70
2022/01/06 09:06:07;;;;;;;80.80;53.63;;;17.90;56.00;;;;;;4993759;27;92473;-68
2022/01/06 09:08:33;;;;;;;78.82;53.65;;;17.90;55.80;;;;;;4992925;27;89917;-68
2022/01/06 09:10:59;;;;;;;78.53;53.78;;;18.00;55.50;;;;;;4997416;27;89908;-68
2022/01/06 09:13:24;;;;;;;78.72;53.35;;;18.00;55.30;;;;;;4991689;27;89667;-68
2022/01/06 09:15:50;;;;;;;77.85;53.20;;;18.00;55.20;;;;;;4996038;27;95668;-69
2022/01/06 09:18:16;;;;;;;79.45;53.45;;;18.10;55.60;;;;;;4991088;27;96381;-69
2022/01/06 09:20:41;;;;;;;79.78;53.13;;;18.10;54.80;;;;;;5005136;27;91495;-69
2022/01/06 09:23:07;;;;;;;73.65;53.30;;;18.10;54.70;;;;;;5001717;27;90248;-69
2022/01/06 09:25:33;;;;;;;80.82;53.15;;;18.10;54.60;;;;;;5009828;27;90598;-69
2022/01/06 09:27:59;;;;;;;76.97;53.65;;;18.10;54.60;;;;;;5007544;27;91582;-69
2022/01/06 09:30:25;;;;;;;76.25;52.67;;;18.10;54.70;;;;;;5000958;27;90132;-69
2022/01/06 09:32:53;;;;;;;76.07;53.90;;;18.10;54.60;;;;;;4999215;27;92210;-68
2022/01/06 09:35:19;;;;;;;81.82;53.35;;;18.10;54.60;;;;;;4982366;27;92243;-68
2022/01/06 09:37:45;;;;;;;78.68;53.67;;;18.10;54.70;;;;;;5002995;27;89560;-68
2022/01/06 09:40:11;;;;;;;80.53;53.97;;;18.10;54.60;;;;;;4988888;27;90067;-69
2022/01/06 09:42:39;;;;;;;81.90;53.80;;;18.10;54.50;;;;;;4991329;27;91030;-68
2022/01/06 09:45:05;;;;;;;84.18;54.08;;;18.10;54.90;;;;;;4986493;27;93648;-68
2022/01/06 09:47:32;;;;;;;73.82;53.80;;;18.10;55.00;;;;;;4994156;27;91401;-68
2022/01/06 09:49:58;;;;;;;75.60;53.35;;;18.10;54.90;;;;;;4972812;27;90842;-66
2022/01/06 09:52:24;;;;;;;74.90;53.55;;;18.20;54.80;;;;;;4986124;27;90866;-68
2022/01/06 09:54:49;;;;;;;76.90;53.42;;;18.20;54.70;;;;;;4996082;27;96141;-66
2022/01/06 09:57:15;;;;;;;72.07;52.63;;;18.30;54.60;;;;;;4978690;27;90726;-69
2022/01/06 09:59:44;;;;;;;76.30;53.15;;;18.40;54.90;;;;;;4998045;27;92445;-70
2022/01/06 10:02:18;;;;;;;79.18;52.85;;;18.50;54.80;;;;;;5001086;27;91170;-67
2022/01/06 10:04:47;;;;;;;76.28;52.88;;;18.60;54.60;;;;;;5005958;27;89718;-68
2022/01/06 10:07:16;;;;;;;74.35;53.15;;;18.80;54.30;;;;;;4991473;28;90969;-69
2022/01/06 10:09:42;;;;;;;81.15;53.53;;;18.80;54.10;;;;;;4998677;27;90615;-68
2022/01/06 10:12:11;;;;;;;76.30;51.88;;;18.90;54.10;;;;;;4978720;27;90915;-69
2022/01/06 10:14:42;;;;;;;75.93;52.75;;;19.10;53.90;;;;;;4989848;28;90775;-69
2022/01/06 10:17:09;;;;;;;76.63;52.03;;;19.10;53.30;;;;;;5006248;27;91525;-66
2022/01/06 10:19:40;;;;;;;72.00;52.17;;;19.10;53.30;;;;;;4983574;27;92133;-69
2022/01/06 10:22:14;;;;;;;73.47;53.22;;;19.20;53.20;;;;;;5003114;27;96308;-69
2022/01/06 10:24:42;;;;;;;73.55;52.67;;;19.20;53.10;;;;;;4980897;27;91912;-69
2022/01/06 10:27:09;;;;;;;73.20;52.22;;;19.20;53.10;;;;;;4986080;27;89789;-69
2022/01/06 10:29:38;;;;;;;76.57;52.92;;;19.20;53.00;;;;;;4988458;27;93397;-67
2022/01/06 10:32:13;;;;;;;71.97;52.55;;;19.40;52.90;;;;;;4985705;27;91139;-68
2022/01/06 10:34:42;;;;;;;73.38;52.40;;;19.30;52.60;;;;;;5005847;27;91900;-68
2022/01/06 10:37:20;;;;;;;73.20;52.40;;;19.40;52.50;;;;;;4984454;27;91195;-67
2022/01/06 10:39:49;;;;;;;76.45;52.20;;;19.30;52.60;;;;;;4996996;27;90238;-66
2022/01/06 10:42:16;;;;;;;76.40;52.35;;;19.40;52.50;;;;;;4973676;27;90202;-68
2022/01/06 10:45:11;;;;;;;73.63;51.80;;;19.40;52.60;;;;;;4997888;27;91604;-67
2022/01/06 10:47:48;;;;;;;79.03;52.92;;;19.40;52.90;;;;;;5001728;27;89979;-67
2022/01/06 10:50:32;;;;;;;82.63;53.45;;;19.40;55.50;;;;;;5005856;27;89970;-65
2022/01/06 10:53:04;;;;;;;75.18;53.30;;;19.50;57.90;;;;;;5001801;27;89597;-69
2022/01/06 10:55:40;;;;;;;73.10;52.75;;;19.50;59.60;;;;;;4982939;27;91051;-69
2022/01/06 10:58:13;;;;;;;76.03;52.45;;;19.50;58.30;;;;;;4995717;27;91452;-69
2022/01/06 11:00:41;;;;;;;70.20;51.65;;;19.50;56.20;;;;;;4981165;27;96431;-68
2022/01/06 11:03:10;;;;;;;74.45;52.20;;;19.50;56.10;;;;;;4989303;27;90276;-67
2022/01/06 11:05:41;;;;;;;74.43;51.88;;;19.50;55.90;;;;;;4987312;27;92082;-68
2022/01/06 11:08:09;;;;;;;74.35;52.58;;;19.40;56.30;;;;;;4987511;27;90291;-71
2022/01/06 11:10:37;;;;;;;80.00;51.97;;;19.40;56.30;;;;;;4976262;27;90165;-70
2022/01/06 11:13:05;;;;;;;74.45;51.95;;;19.40;55.80;;;;;;4982720;27;96233;-69
2022/01/06 11:15:31;;;;;;;76.72;52.70;;;19.40;57.00;;;;;;4983729;27;90775;-69
2022/01/06 11:18:00;;;;;;;71.45;51.85;;;19.40;57.60;;;;;;5007633;27;88920;-70
2022/01/06 11:20:27;;;;;;;76.35;52.13;;;19.40;55.70;;;;;;4984365;27;91115;-68
2022/01/06 11:22:57;;;;;;;76.38;52.45;;;19.40;55.40;;;;;;5000422;27;91118;-67
2022/01/06 11:25:34;;;;;;;72.90;51.88;;;19.30;55.10;;;;;;5004778;27;93888;-67
2022/01/06 11:28:02;;;;;;;76.20;52.10;;;19.30;54.70;;;;;;4987592;27;92129;-67
2022/01/06 11:30:43;;;;;;;72.75;51.85;;;19.30;54.70;;;;;;5016752;27;89724;-67
2022/01/06 11:33:10;;;;;;;73.55;51.63;;;19.30;54.70;;;;;;5000688;27;89570;-67
2022/01/06 11:35:57;;;;;;;71.07;51.53;;;19.30;54.70;;;;;;5003535;27;91605;-67
2022/01/06 11:38:27;;;;;;;73.75;51.95;;;19.30;54.40;;;;;;5009988;27;90051;-67
2022/01/06 11:41:09;;;;;;;72.05;51.63;;;19.30;54.20;;;;;;5005030;27;92051;-66
2022/01/06 11:43:39;;;;;;;69.10;51.30;;;19.20;54.20;;;;;;5001412;27;91061;-67
2022/01/06 11:46:06;;;;;;;71.33;51.20;;;19.20;54.30;;;;;;5005717;27;93516;-67
2022/01/06 11:48:31;;;;;;;68.15;51.38;;;19.20;54.20;;;;;;5007538;27;90342;-67
2022/01/06 11:50:57;;;;;;;70.45;51.47;;;19.20;54.20;;;;;;5002762;27;94222;-67
2022/01/06 11:53:33;;;;;;;71.45;51.35;;;19.20;54.10;;;;;;4997588;27;91096;-67
2022/01/06 11:56:11;;;;;;;72.40;51.30;;;19.20;54.00;;;;;;5005921;27;89341;-69
2022/01/06 11:58:37;;;;;;;70.32;51.55;;;19.20;53.80;;;;;;5006065;27;89944;-70
2022/01/06 12:01:06;;;;;;;70.03;51.38;;;19.10;53.80;;;;;;5004802;27;90422;-69
2022/01/06 12:03:45;;;;;;;68.05;51.25;;;19.10;53.80;;;;;;4985786;27;92007;-69
2022/01/06 12:06:30;;;;;;;69.50;51.35;;;19.10;53.90;;;;;;4974493;27;91478;-68
2022/01/06 12:08:56;;;;;;;73.85;51.25;;;19.10;53.80;;;;;;4996789;27;95583;-69
2022/01/06 12:11:33;;;;;;;70.15;51.38;;;19.10;53.70;;;;;;4982561;27;90319;-69
2022/01/06 12:14:00;;;;;;;72.25;51.08;;;19.00;54.10;;;;;;4973009;27;94485;-67
2022/01/06 12:16:35;;;;;;;70.63;50.72;;;19.10;54.10;;;;;;4987567;27;91879;-64
2022/01/06 12:19:12;;;;;;;75.93;51.42;;;19.10;54.30;;;;;;4987998;27;91122;-66
2022/01/06 12:21:38;;;;;;;71.97;50.80;;;19.10;54.30;;;;;;5008307;27;90234;-67
2022/01/06 12:24:07;;;;;;;69.10;50.83;;;19.10;54.20;;;;;;5005029;27;96402;-70
2022/01/06 12:26:34;;;;;;;72.78;51.28;;;19.00;54.30;;;;;;5010436;27;92996;-69
2022/01/06 12:29:01;;;;;;;72.35;51.30;;;19.00;54.50;;;;;;4993003;27;90033;-71